Time;durP1;ratioP1;P1;durP2;ratioP2;P2;SDS_P1;SDS_P2;PMS_P1;PMS_P2;Temp;Humidity;BMP_temperature;BMP_pressure;BME280_temperature;BME280_humidity;BME280_pressure;Samples;Min_cycle;Max_cycle;Signal;HPM_P1;HPM_P2
2023/03/02 00:01:50;;;;;;;33.60;21.53;;;1.50;99.90;;;;;;5011182;28;20044;-78
2023/03/02 00:04:31;;;;;;;41.17;25.17;;;1.50;99.90;;;;;;5026536;28;20045;-77
2023/03/02 00:07:01;;;;;;;42.93;26.17;;;1.50;99.90;;;;;;5012611;28;20029;-73
2023/03/02 00:09:29;;;;;;;45.00;27.27;;;1.40;99.90;;;;;;5026488;28;20033;-72
2023/03/02 00:11:56;;;;;;;52.03;31.70;;;1.40;99.90;;;;;;5030331;28;20431;-78
2023/03/02 00:14:22;;;;;;;54.37;32.53;;;1.40;99.90;;;;;;5032359;28;20598;-79
2023/03/02 00:16:48;;;;;;;55.40;32.47;;;1.30;99.90;;;;;;5032887;28;20036;-77
2023/03/02 00:19:15;;;;;;;55.97;32.83;;;1.20;99.90;;;;;;4994374;28;20044;-73
2023/03/02 00:21:41;;;;;;;62.93;35.47;;;1.20;99.90;;;;;;5013744;28;20036;-75
2023/03/02 00:24:07;;;;;;;70.07;39.70;;;1.20;99.90;;;;;;5028918;28;20128;-74
2023/03/02 00:26:34;;;;;;;77.27;43.00;;;1.10;99.90;;;;;;5015494;28;20438;-78
2023/03/02 00:29:02;;;;;;;73.47;40.87;;;1.10;99.90;;;;;;5029586;28;20041;-75
2023/03/02 00:31:28;;;;;;;82.83;43.53;;;1.10;99.90;;;;;;5032146;28;20600;-78
2023/03/02 00:33:54;;;;;;;78.47;41.37;;;1.00;99.90;;;;;;5033278;28;20404;-78
2023/03/02 00:36:22;;;;;;;58.30;33.33;;;1.00;99.90;;;;;;5031506;28;20040;-79
2023/03/02 00:38:51;;;;;;;61.77;34.67;;;1.00;99.90;;;;;;5012028;28;20041;-79
2023/03/02 00:41:20;;;;;;;81.63;44.43;;;1.00;99.90;;;;;;4998271;28;20052;-80
2023/03/02 00:43:47;;;;;;;78.40;41.37;;;1.10;99.90;;;;;;5012728;28;20037;-73
2023/03/02 00:46:19;;;;;;;78.40;41.77;;;1.10;99.90;;;;;;4997705;28;20049;-78
2023/03/02 00:48:46;;;;;;;;;;;1.10;99.90;;;;;;5013152;28;20040;-73
2023/03/02 00:51:13;;;;;;;81.60;42.23;;;1.10;99.90;;;;;;5012177;28;19913;-80
2023/03/02 00:53:40;;;;;;;72.27;39.67;;;1.10;99.90;;;;;;5031273;28;20033;-80
2023/03/02 00:56:07;;;;;;;72.50;38.20;;;1.10;99.90;;;;;;5015404;28;20131;-78
2023/03/02 00:58:37;;;;;;;92.57;46.73;;;1.10;99.90;;;;;;5027497;28;20047;-74
2023/03/02 01:01:07;;;;;;;77.43;42.00;;;1.10;99.90;;;;;;5012504;28;20044;-73
2023/03/02 01:03:36;;;;;;;74.05;39.97;;;1.10;99.90;;;;;;5029255;28;20448;-75
2023/03/02 01:06:04;;;;;;;78.43;41.53;;;1.10;99.90;;;;;;5014701;28;20418;-79
2023/03/02 01:08:30;;;;;;;67.47;35.50;;;1.10;99.90;;;;;;5011340;28;20045;-79
2023/03/02 01:11:00;;;;;;;77.80;40.23;;;1.20;99.90;;;;;;4996053;28;20327;-76
2023/03/02 01:13:27;;;;;;;81.30;42.90;;;1.20;99.90;;;;;;5031505;28;20495;-79
2023/03/02 01:16:01;;;;;;;67.83;36.50;;;1.20;99.90;;;;;;5017838;28;20070;-75
2023/03/02 01:18:28;;;;;;;77.03;42.07;;;1.10;99.90;;;;;;5026628;28;20032;-77
2023/03/02 01:21:02;;;;;;;73.03;40.13;;;1.10;99.90;;;;;;5011986;28;20033;-80
2023/03/02 01:23:29;;;;;;;76.53;38.90;;;1.20;99.90;;;;;;5029978;28;20472;-79
2023/03/02 01:25:55;;;;;;;76.13;39.80;;;1.10;99.90;;;;;;5030550;28;20116;-78
2023/03/02 01:28:21;;;;;;;67.17;36.97;;;1.10;99.90;;;;;;5027432;28;20033;-78
2023/03/02 01:30:48;;;;;;;69.03;36.60;;;1.10;99.90;;;;;;5012922;28;20041;-76
2023/03/02 01:33:14;;;;;;;83.73;42.97;;;1.20;99.90;;;;;;5011929;28;20045;-79
2023/03/02 01:35:42;;;;;;;95.47;46.23;;;1.20;99.90;;;;;;4997059;28;20486;-79
2023/03/02 01:38:09;;;;;;;78.77;39.53;;;1.20;99.90;;;;;;5027956;28;20041;-72
2023/03/02 01:40:35;;;;;;;74.10;39.00;;;1.20;99.90;;;;;;5045212;28;20038;-79
2023/03/02 01:43:03;;;;;;;85.60;43.67;;;1.20;99.90;;;;;;5028937;28;20044;-77
2023/03/02 01:45:50;;;;;;;85.77;43.70;;;1.10;99.90;;;;;;5030031;28;20036;-79
2023/03/02 01:48:28;;;;;;;93.70;46.53;;;1.10;99.90;;;;;;5011471;28;20044;-76
2023/03/02 01:50:56;;;;;;;78.60;40.10;;;1.10;99.90;;;;;;5026514;28;20067;-78
2023/03/02 01:53:25;;;;;;;71.03;37.17;;;1.10;99.90;;;;;;5030023;28;20590;-73
2023/03/02 01:55:51;;;;;;;67.80;37.03;;;1.00;99.90;;;;;;5013335;28;20055;-79
2023/03/02 01:58:18;;;;;;;87.13;42.57;;;1.00;99.90;;;;;;5012080;28;20041;-76
2023/03/02 02:00:45;;;;;;;70.40;36.43;;;1.00;99.90;;;;;;5027806;28;20047;-77
2023/03/02 02:03:19;;;;;;;87.83;45.20;;;1.00;99.90;;;;;;5030940;28;20025;-79
2023/03/02 02:06:03;;;;;;;75.97;39.13;;;1.00;99.90;;;;;;5013034;28;20055;-74
2023/03/02 02:08:29;;;;;;;;;;;0.90;99.90;;;;;;5011361;28;20048;-71
2023/03/02 02:10:55;;;;;;;77.03;38.63;;;0.90;99.90;;;;;;5016433;28;19916;-77
2023/03/02 02:13:22;;;;;;;73.67;39.60;;;0.90;99.90;;;;;;5015279;28;20129;-80
2023/03/02 02:15:48;;;;;;;90.97;43.90;;;0.90;99.90;;;;;;5012317;28;20441;-76
2023/03/02 02:18:15;;;;;;;68.93;37.07;;;0.90;99.90;;;;;;5011243;28;20041;-75
2023/03/02 02:20:44;;;;;;;64.43;34.00;;;0.90;99.90;;;;;;5027503;28;20041;-75
2023/03/02 02:23:26;;;;;;;70.63;36.90;;;0.90;99.90;;;;;;4996511;28;20063;-76
2023/03/02 02:25:52;;;;;;;69.93;34.17;;;0.90;99.90;;;;;;5028004;28;20435;-78
2023/03/02 02:28:26;;;;;;;75.73;38.17;;;0.90;99.90;;;;;;5028197;28;20036;-79
2023/03/02 02:31:11;;;;;;;68.80;35.37;;;1.00;99.90;;;;;;5009515;28;20047;-76
2023/03/02 02:33:40;;;;;;;66.40;35.43;;;0.90;99.90;;;;;;5029111;28;20041;-75
2023/03/02 02:36:13;;;;;;;70.47;37.60;;;0.90;99.90;;;;;;5014947;28;20041;-78
2023/03/02 02:38:41;;;;;;;70.40;35.15;;;0.90;99.90;;;;;;4995610;28;20048;-76
2023/03/02 02:41:14;;;;;;;63.80;33.20;;;0.80;99.90;;;;;;4992901;28;20396;-77
2023/03/02 02:43:40;;;;;;;76.63;39.27;;;0.80;99.90;;;;;;5011208;28;20498;-78
2023/03/02 02:46:10;;;;;;;67.30;34.77;;;0.80;99.90;;;;;;4998580;28;20045;-74
2023/03/02 02:48:37;;;;;;;65.40;33.83;;;0.70;99.90;;;;;;5027344;28;20032;-75
2023/03/02 02:51:07;;;;;;;68.17;33.83;;;0.70;99.90;;;;;;5030505;28;20484;-74
2023/03/02 02:53:39;;;;;;;78.17;39.30;;;0.70;99.90;;;;;;5026905;28;20158;-75
2023/03/02 02:56:07;;;;;;;68.88;35.20;;;0.70;99.90;;;;;;5029670;28;20044;-74
2023/03/02 02:58:46;;;;;;;81.80;40.10;;;0.70;99.90;;;;;;5009798;28;20045;-77
2023/03/02 03:01:19;;;;;;;76.17;35.63;;;0.60;99.90;;;;;;5011420;28;20048;-77
2023/03/02 03:03:55;;;;;;;71.33;34.83;;;0.60;99.90;;;;;;5011285;28;20487;-74
2023/03/02 03:06:29;;;;;;;75.30;36.80;;;0.60;99.90;;;;;;5013905;28;20032;-80
2023/03/02 03:08:58;;;;;;;83.83;40.93;;;0.50;99.90;;;;;;4995977;28;20029;-72
2023/03/02 03:11:40;;;;;;;80.00;40.70;;;0.50;99.90;;;;;;5012814;28;20048;-74
2023/03/02 03:14:08;;;;;;;78.37;38.30;;;0.50;99.90;;;;;;5010722;28;20532;-78
2023/03/02 03:16:37;;;;;;;89.63;42.97;;;0.40;99.90;;;;;;5028452;28;20492;-79
2023/03/02 03:19:19;;;;;;;77.53;38.33;;;0.40;99.90;;;;;;5027111;28;20037;-75
2023/03/02 03:21:49;;;;;;;69.78;34.30;;;0.40;99.90;;;;;;5031218;28;20037;-76
2023/03/02 03:24:17;;;;;;;84.03;40.53;;;0.30;99.90;;;;;;4994280;28;20723;-73
2023/03/02 03:26:44;;;;;;;78.57;36.27;;;0.30;99.90;;;;;;5026732;28;20040;-74
2023/03/02 03:29:13;;;;;;;79.93;38.87;;;0.30;99.90;;;;;;5023569;28;20041;-76
2023/03/02 03:31:40;;;;;;;87.87;40.50;;;0.20;99.90;;;;;;5012435;28;20044;-79
2023/03/02 03:34:07;;;;;;;117.27;48.60;;;0.20;99.90;;;;;;5011529;28;20350;-77
2023/03/02 03:36:36;;;;;;;110.47;45.73;;;0.20;99.90;;;;;;5027533;28;20044;-78
2023/03/02 03:39:04;;;;;;;75.77;35.70;;;0.20;99.90;;;;;;5026139;28;20523;-78
2023/03/02 03:41:31;;;;;;;93.20;41.23;;;0.10;99.90;;;;;;5010414;28;20060;-77
2023/03/02 03:43:58;;;;;;;78.90;38.00;;;0.10;99.90;;;;;;5027836;28;20052;-77
2023/03/02 03:46:26;;;;;;;74.40;34.40;;;0.10;99.90;;;;;;5028145;28;20033;-80
2023/03/02 03:48:53;;;;;;;74.70;36.73;;;0.10;99.90;;;;;;5025249;28;20047;-78
2023/03/02 03:51:20;;;;;;;86.23;40.53;;;0.00;99.90;;;;;;5012432;28;20040;-75
2023/03/02 03:53:58;;;;;;;70.33;32.67;;;0.00;99.90;;;;;;4996273;28;20044;-76
2023/03/02 03:56:27;;;;;;;71.20;32.87;;;0.10;99.90;;;;;;5011385;28;20041;-75
2023/03/02 03:59:05;;;;;;;76.07;36.33;;;0.10;99.90;;;;;;4995303;28;20041;-77
2023/03/02 04:01:42;;;;;;;68.80;33.37;;;0.00;99.90;;;;;;5011870;28;20040;-78
2023/03/02 04:04:16;;;;;;;82.63;37.53;;;0.10;99.90;;;;;;5026999;28;20032;-76
2023/03/02 04:06:43;;;;;;;83.27;38.60;;;0.10;99.90;;;;;;5013761;28;20049;-76
2023/03/02 04:09:11;;;;;;;91.13;40.07;;;0.00;99.90;;;;;;4997901;28;20041;-77
2023/03/02 04:11:40;;;;;;;82.37;37.93;;;0.00;99.90;;;;;;5032444;28;20044;-76
2023/03/02 04:14:07;;;;;;;85.37;36.97;;;0.00;99.90;;;;;;5028936;28;20037;-76
2023/03/02 04:16:35;;;;;;;80.33;35.73;;;0.00;99.90;;;;;;5014602;28;20519;-78
2023/03/02 04:19:08;;;;;;;78.23;35.20;;;0.00;99.90;;;;;;5009870;28;20976;-75
2023/03/02 04:21:41;;;;;;;93.57;39.63;;;0.00;99.90;;;;;;5013283;28;20029;-78
2023/03/02 04:24:09;;;;;;;92.03;41.10;;;0.00;99.90;;;;;;5029118;28;20037;-72
2023/03/02 04:26:38;;;;;;;90.07;38.30;;;0.00;99.90;;;;;;5029951;28;20632;-77
2023/03/02 04:29:05;;;;;;;82.00;36.27;;;0.00;99.90;;;;;;5030033;28;20029;-76
2023/03/02 04:31:32;;;;;;;90.33;39.20;;;0.00;99.90;;;;;;5030467;28;20033;-76
2023/03/02 04:34:03;;;;;;;85.33;39.53;;;0.00;99.90;;;;;;5015621;28;20029;-78
2023/03/02 04:36:31;;;;;;;77.80;36.80;;;0.00;99.90;;;;;;5031516;28;20036;-76
2023/03/02 04:38:57;;;;;;;96.33;42.57;;;0.00;99.90;;;;;;5028841;28;20036;-74
2023/03/02 04:41:24;;;;;;;78.47;36.13;;;0.00;99.90;;;;;;5015173;28;20044;-78
2023/03/02 04:43:51;;;;;;;77.03;35.27;;;0.00;99.90;;;;;;5031390;28;20124;-79
2023/03/02 04:46:22;;;;;;;75.13;35.60;;;0.00;99.90;;;;;;4997145;28;20919;-73
2023/03/02 04:48:48;;;;;;;86.37;38.37;;;0.00;99.90;;;;;;5012208;28;20032;-78
2023/03/02 04:51:30;;;;;;;78.97;35.27;;;0.00;99.90;;;;;;5028992;28;20473;-79
2023/03/02 04:53:59;;;;;;;70.37;32.37;;;0.00;99.90;;;;;;5010066;28;20025;-76
2023/03/02 04:56:26;;;;;;;83.50;37.70;;;0.00;99.90;;;;;;5014196;28;20045;-74
2023/03/02 04:58:53;;;;;;;85.03;37.37;;;0.00;99.90;;;;;;5026399;28;20575;-78
2023/03/02 05:01:19;;;;;;;78.07;34.57;;;0.00;99.90;;;;;;5013045;28;20507;-78
2023/03/02 05:03:46;;;;;;;84.70;36.40;;;0.00;99.90;;;;;;5013883;28;20534;-77
2023/03/02 05:06:13;;;;;;;79.93;37.60;;;-0.10;99.90;;;;;;5030510;28;20048;-77
2023/03/02 05:08:40;;;;;;;68.33;32.40;;;-0.10;99.90;;;;;;5014367;28;20037;-77
2023/03/02 05:11:07;;;;;;;63.53;30.13;;;0.00;99.90;;;;;;5014959;28;20040;-80
2023/03/02 05:13:34;;;;;;;69.33;31.57;;;0.00;99.90;;;;;;5014022;28;20056;-76
2023/03/02 05:16:01;;;;;;;79.90;37.87;;;0.00;99.90;;;;;;5029325;28;20049;-75
2023/03/02 05:18:28;;;;;;;76.20;34.60;;;0.10;99.90;;;;;;5028787;28;20029;-79
2023/03/02 05:20:55;;;;;;;71.90;34.37;;;0.10;99.90;;;;;;5013693;28;20685;-80
2023/03/02 05:23:26;;;;;;;72.27;35.33;;;0.00;99.90;;;;;;5030568;28;20040;-77
2023/03/02 05:25:54;;;;;;;71.93;34.10;;;0.00;99.90;;;;;;4996994;28;20060;-79
2023/03/02 05:28:23;;;;;;;71.67;32.30;;;0.00;99.90;;;;;;4997114;28;20044;-74
2023/03/02 05:30:50;;;;;;;73.87;34.53;;;0.00;99.90;;;;;;4997162;28;20037;-79
2023/03/02 05:33:17;;;;;;;69.13;32.33;;;0.00;99.90;;;;;;5030480;28;20132;-75
2023/03/02 05:35:44;;;;;;;72.97;33.00;;;-0.10;99.90;;;;;;5032431;28;20044;-79
2023/03/02 05:38:10;;;;;;;82.57;36.57;;;-0.10;99.90;;;;;;5029417;28;20040;-76
2023/03/02 05:40:38;;;;;;;75.83;33.63;;;-0.10;99.90;;;;;;5029425;28;20036;-80
2023/03/02 05:43:05;;;;;;;77.23;34.67;;;-0.20;99.90;;;;;;5013015;28;20517;-79
2023/03/02 05:45:35;;;;;;;73.17;33.20;;;-0.20;99.90;;;;;;5013412;28;20032;-77
2023/03/02 05:48:03;;;;;;;85.57;38.00;;;-0.20;99.90;;;;;;5027202;28;20682;-75
2023/03/02 05:50:30;;;;;;;76.53;34.17;;;-0.20;99.90;;;;;;5014101;28;20041;-78
2023/03/02 05:52:58;;;;;;;94.17;39.20;;;-0.20;99.90;;;;;;5013582;28;20311;-78
2023/03/02 05:55:25;;;;;;;74.47;33.33;;;-0.20;99.90;;;;;;5029257;28;20044;-75
2023/03/02 05:57:52;;;;;;;84.60;38.63;;;-0.30;99.90;;;;;;5028492;28;20048;-77
2023/03/02 06:00:19;;;;;;;75.87;33.50;;;-0.30;99.90;;;;;;5029029;28;20036;-77
2023/03/02 06:02:45;;;;;;;76.30;34.83;;;-0.30;99.90;;;;;;5031748;28;20044;-77
2023/03/02 06:05:18;;;;;;;78.60;35.03;;;-0.30;99.90;;;;;;5032840;28;20574;-78
2023/03/02 06:07:44;;;;;;;69.22;31.80;;;-0.20;99.90;;;;;;5028947;28;20056;-79
2023/03/02 06:10:12;;;;;;;76.40;34.97;;;-0.20;99.90;;;;;;5002049;28;20036;-76
2023/03/02 06:12:38;;;;;;;82.57;36.43;;;-0.20;99.90;;;;;;5031428;28;20503;-77
2023/03/02 06:15:05;;;;;;;78.70;36.00;;;-0.20;99.90;;;;;;5030389;28;20562;-79
2023/03/02 06:17:32;;;;;;;87.83;39.20;;;-0.30;99.90;;;;;;4995653;28;20045;-74
2023/03/02 06:19:58;;;;;;;73.83;34.60;;;-0.30;99.90;;;;;;5029201;28;20044;-81
2023/03/02 06:22:25;;;;;;;73.23;33.63;;;-0.30;99.90;;;;;;5013449;28;20464;-74
2023/03/02 06:24:53;;;;;;;80.10;34.57;;;-0.30;99.90;;;;;;5029053;28;20045;-78
2023/03/02 06:27:20;;;;;;;81.17;35.73;;;-0.30;99.90;;;;;;5031756;28;20055;-75
2023/03/02 06:29:46;;;;;;;84.87;36.67;;;-0.30;99.90;;;;;;5026003;28;20037;-75
2023/03/02 06:32:13;;;;;;;77.97;36.30;;;-0.40;99.90;;;;;;5029331;28;20043;-75
2023/03/02 06:34:39;;;;;;;70.00;34.43;;;-0.40;99.90;;;;;;5013448;28;20055;-75
2023/03/02 06:37:05;;;;;;;68.00;30.33;;;-0.40;99.90;;;;;;5027022;28;20490;-77
2023/03/02 06:39:32;;;;;;;62.07;29.67;;;-0.30;99.90;;;;;;5025106;28;20554;-77
2023/03/02 06:41:59;;;;;;;71.77;31.70;;;-0.30;99.90;;;;;;5029463;28;20448;-78
2023/03/02 06:44:25;;;;;;;74.70;33.87;;;-0.20;99.90;;;;;;5028660;28;20107;-79
2023/03/02 06:46:52;;;;;;;65.70;29.93;;;-0.20;99.90;;;;;;5030329;28;20044;-77
2023/03/02 06:49:18;;;;;;;61.67;29.63;;;-0.20;99.90;;;;;;5025970;28;20043;-73
2023/03/02 06:51:44;;;;;;;59.97;27.47;;;-0.10;99.90;;;;;;5029511;28;20158;-74
2023/03/02 06:54:10;;;;;;;62.20;30.20;;;0.00;99.90;;;;;;5027954;28;20448;-80
2023/03/02 06:56:37;;;;;;;60.97;28.40;;;0.10;99.90;;;;;;5027032;28;20184;-78
2023/03/02 06:59:03;;;;;;;68.23;31.60;;;0.20;99.90;;;;;;5025737;28;20044;-74
2023/03/02 07:01:34;;;;;;;63.83;29.40;;;0.30;99.90;;;;;;5028971;28;20040;-76
2023/03/02 07:04:02;;;;;;;58.60;27.87;;;0.30;99.90;;;;;;5011949;28;20789;-79
2023/03/02 07:06:28;;;;;;;58.70;27.30;;;0.40;99.90;;;;;;5031342;28;20044;-76
2023/03/02 07:08:54;;;;;;;63.63;29.80;;;0.50;99.90;;;;;;5026108;28;20033;-74
2023/03/02 07:11:20;;;;;;;61.37;27.23;;;0.60;99.90;;;;;;5014788;28;20033;-72
2023/03/02 07:13:47;;;;;;;58.20;29.57;;;0.60;99.90;;;;;;4993439;28;20036;-80
2023/03/02 07:16:14;;;;;;;58.67;26.67;;;0.70;99.90;;;;;;5028599;28;20042;-79
2023/03/02 07:18:40;;;;;;;60.27;29.60;;;0.80;99.90;;;;;;5009554;28;20044;-76
2023/03/02 07:21:07;;;;;;;51.87;26.00;;;0.80;99.90;;;;;;5026348;28;20393;-76
2023/03/02 07:23:33;;;;;;;63.80;30.13;;;0.90;99.90;;;;;;5025015;28;20731;-77
2023/03/02 07:26:00;;;;;;;53.93;26.43;;;1.00;99.90;;;;;;5010111;28;20036;-76
2023/03/02 07:28:26;;;;;;;60.40;26.43;;;1.10;99.90;;;;;;5006921;28;20025;-80
2023/03/02 07:30:52;;;;;;;57.93;27.23;;;1.20;99.90;;;;;;5010638;28;20495;-79
2023/03/02 07:33:19;;;;;;;54.13;24.53;;;1.30;99.90;;;;;;5028594;28;20738;-75
2023/03/02 07:35:46;;;;;;;52.73;27.03;;;1.30;99.90;;;;;;5010857;28;20052;-80
2023/03/02 07:38:12;;;;;;;50.67;26.60;;;1.40;99.90;;;;;;5025247;28;20037;-80
2023/03/02 07:40:43;;;;;;;57.97;28.50;;;1.50;99.90;;;;;;5026608;28;20041;-86
2023/03/02 07:43:09;;;;;;;48.33;24.20;;;1.60;99.90;;;;;;5027154;28;20542;-79
2023/03/02 07:45:37;;;;;;;45.17;22.07;;;1.70;99.90;;;;;;5029577;28;20044;-76
2023/03/02 07:48:04;;;;;;;55.80;26.83;;;1.80;99.90;;;;;;5025667;28;20037;-77
2023/03/02 07:50:30;;;;;;;50.23;24.37;;;1.80;99.90;;;;;;5027651;28;20043;-81
2023/03/02 07:52:57;;;;;;;52.47;25.60;;;1.90;99.90;;;;;;5026654;28;20033;-80
2023/03/02 07:55:23;;;;;;;50.27;25.10;;;1.90;99.90;;;;;;5030450;28;20041;-82
2023/03/02 07:57:49;;;;;;;56.27;26.17;;;1.90;99.90;;;;;;5024785;28;20036;-77
2023/03/02 08:00:17;;;;;;;46.40;23.27;;;2.00;99.90;;;;;;5024470;28;20056;-77
2023/03/02 08:02:43;;;;;;;51.57;27.13;;;2.00;99.90;;;;;;5029041;28;20033;-75
2023/03/02 08:05:10;;;;;;;48.83;22.10;;;2.10;99.90;;;;;;5031795;28;20043;-74
2023/03/02 08:07:37;;;;;;;47.80;24.03;;;2.20;99.90;;;;;;5029905;28;20037;-77
2023/03/02 08:10:04;;;;;;;41.50;20.97;;;2.20;99.90;;;;;;5030229;28;20071;-77
2023/03/02 08:12:30;;;;;;;41.27;19.20;;;2.30;99.90;;;;;;5016276;28;20041;-76
2023/03/02 08:14:57;;;;;;;38.40;19.53;;;2.40;99.90;;;;;;5014661;28;20041;-74
2023/03/02 08:17:23;;;;;;;39.67;19.63;;;2.50;99.90;;;;;;5031533;28;20426;-74
2023/03/02 08:19:49;;;;;;;45.07;20.50;;;2.60;99.90;;;;;;5029102;28;21012;-78
2023/03/02 08:22:16;;;;;;;37.83;20.07;;;2.70;99.90;;;;;;5034357;28;20477;-78
2023/03/02 08:24:42;;;;;;;34.50;18.50;;;2.80;99.90;;;;;;5014314;28;20052;-80
2023/03/02 08:27:13;;;;;;;45.63;21.47;;;2.90;99.90;;;;;;5014944;28;20048;-77
2023/03/02 08:29:39;;;;;;;43.73;20.70;;;2.90;99.90;;;;;;5030371;28;20044;-74
2023/03/02 08:32:06;;;;;;;41.53;18.40;;;2.90;99.90;;;;;;5013860;28;20056;-77
2023/03/02 08:34:32;;;;;;;38.50;19.13;;;3.00;99.90;;;;;;5031003;28;20039;-77
2023/03/02 08:36:59;;;;;;;39.27;19.43;;;3.10;99.90;;;;;;5013692;28;20404;-75
2023/03/02 08:39:29;;;;;;;39.67;20.17;;;3.20;99.90;;;;;;5027846;28;20029;-75
2023/03/02 08:41:55;;;;;;;36.73;19.10;;;3.30;99.90;;;;;;5031368;28;20037;-77
2023/03/02 08:44:21;;;;;;;38.40;19.87;;;3.40;99.90;;;;;;5014837;28;20048;-77
2023/03/02 08:46:49;;;;;;;39.23;20.57;;;3.40;99.90;;;;;;5033886;28;20608;-76
2023/03/02 08:49:16;;;;;;;39.97;20.23;;;3.50;99.90;;;;;;5027818;28;20041;-77
2023/03/02 08:51:43;;;;;;;37.37;20.50;;;3.50;99.90;;;;;;5032326;28;20041;-78
2023/03/02 08:54:10;;;;;;;42.13;19.47;;;3.60;99.90;;;;;;5012653;28;20040;-74
2023/03/02 08:56:38;;;;;;;37.40;18.97;;;3.60;99.90;;;;;;5024878;28;20051;-78
2023/03/02 08:59:08;;;;;;;41.17;19.67;;;3.60;99.90;;;;;;5029049;28;20373;-75
2023/03/02 09:01:36;;;;;;;39.90;20.63;;;3.70;99.90;;;;;;5032064;28;20487;-77
2023/03/02 09:04:04;;;;;;;39.30;19.10;;;3.70;99.90;;;;;;5031844;28;20040;-75
2023/03/02 09:06:34;;;;;;;39.50;20.73;;;3.80;99.90;;;;;;5030848;28;20056;-75
2023/03/02 09:09:00;;;;;;;40.87;20.97;;;3.80;99.90;;;;;;5028809;28;20479;-76
2023/03/02 09:11:26;;;;;;;42.80;21.20;;;3.90;99.90;;;;;;5030092;28;20488;-79
2023/03/02 09:13:53;;;;;;;39.00;20.77;;;3.90;99.90;;;;;;5029635;28;20029;-78
2023/03/02 09:16:20;;;;;;;37.57;19.27;;;4.00;99.90;;;;;;5013560;28;20049;-76
2023/03/02 09:18:46;;;;;;;35.27;19.03;;;4.10;99.90;;;;;;5028247;28;20673;-75
2023/03/02 09:21:13;;;;;;;34.80;18.67;;;4.20;99.90;;;;;;5011962;28;20041;-78
2023/03/02 09:23:39;;;;;;;38.60;20.80;;;4.20;99.90;;;;;;5029314;28;20400;-76
2023/03/02 09:26:05;;;;;;;39.60;20.73;;;4.30;99.90;;;;;;5014389;28;20041;-74
2023/03/02 09:28:32;;;;;;;39.47;20.20;;;4.30;99.90;;;;;;5029766;28;20033;-76
2023/03/02 09:31:01;;;;;;;42.07;21.23;;;4.30;99.90;;;;;;5028111;28;20047;-77
2023/03/02 09:33:28;;;;;;;37.40;19.97;;;4.40;99.90;;;;;;5029712;28;20491;-79
2023/03/02 09:35:54;;;;;;;37.73;19.20;;;4.50;99.90;;;;;;5032618;28;20480;-79
2023/03/02 09:38:21;;;;;;;38.57;20.23;;;4.50;99.90;;;;;;5010428;28;20041;-78
2023/03/02 09:41:19;;;;;;;37.20;19.87;;;4.50;99.90;;;;;;5029283;28;20408;-78
2023/03/02 09:43:54;;;;;;;38.70;20.77;;;4.50;99.90;;;;;;5028324;28;20028;-77
2023/03/02 09:46:46;;;;;;;37.60;20.33;;;4.60;99.90;;;;;;5030049;28;20033;-79
2023/03/02 09:49:34;;;;;;;36.38;19.40;;;4.70;99.90;;;;;;5026068;28;20044;-75
2023/03/02 09:52:46;;;;;;;32.73;18.33;;;4.80;99.90;;;;;;5030763;28;20036;-74
2023/03/02 09:55:18;;;;;;;35.10;19.20;;;5.00;99.90;;;;;;4989626;28;20517;-77
2023/03/02 09:57:45;;;;;;;33.10;18.60;;;5.10;99.90;;;;;;5021159;28;20048;-74
2023/03/02 10:00:24;;;;;;;35.10;19.80;;;5.00;99.90;;;;;;5026073;28;20037;-79
2023/03/02 10:03:05;;;;;;;34.13;18.10;;;5.00;99.90;;;;;;5028406;28;20043;-79
2023/03/02 10:05:40;;;;;;;32.97;17.70;;;5.10;99.90;;;;;;5032085;28;22624;-78
2023/03/02 10:08:25;;;;;;;33.17;18.23;;;5.20;99.90;;;;;;5028536;28;20041;-74
2023/03/02 10:11:19;;;;;;;29.97;17.37;;;5.40;99.90;;;;;;5028933;28;20041;-76
2023/03/02 10:14:07;;;;;;;34.57;17.30;;;5.50;99.90;;;;;;5026826;28;20041;-79
2023/03/02 10:16:46;;;;;;;26.43;14.97;;;5.70;99.90;;;;;;5030865;28;20044;-75
2023/03/02 10:19:36;;;;;;;26.00;14.67;;;5.90;99.90;;;;;;5028010;28;20033;-78
2023/03/02 10:22:14;;;;;;;27.43;15.23;;;6.20;99.90;;;;;;5025446;28;20032;-76
2023/03/02 10:24:59;;;;;;;27.00;14.73;;;6.60;99.90;;;;;;5028770;28;20618;-77
2023/03/02 10:27:47;;;;;;;24.17;14.15;;;7.00;99.90;;;;;;5031424;28;20041;-77
2023/03/02 10:30:24;;;;;;;22.20;12.70;;;7.50;99.90;;;;;;5032095;28;20871;-76
2023/03/02 10:32:53;;;;;;;19.85;11.35;;;7.90;99.90;;;;;;5010733;28;20052;-79
2023/03/02 10:35:25;;;;;;;23.60;13.65;;;8.20;99.90;;;;;;5031207;28;20029;-71
2023/03/02 10:38:11;;;;;;;23.27;13.18;;;8.60;99.90;;;;;;5028397;28;20415;-74
2023/03/02 10:40:46;;;;;;;22.92;13.70;;;9.00;99.90;;;;;;5029016;28;20041;-74
2023/03/02 10:43:34;;;;;;;24.75;14.93;;;9.40;99.90;;;;;;5025820;28;20045;-73
2023/03/02 10:46:03;;;;;;;31.33;19.40;;;9.80;99.90;;;;;;5028541;28;20715;-75
2023/03/02 10:48:30;;;;;;;19.23;11.45;;;10.10;99.90;;;;;;5028071;28;20538;-76
2023/03/02 10:50:57;;;;;;;23.83;14.93;;;10.30;99.90;;;;;;5028506;28;20583;-76
2023/03/02 10:53:24;;;;;;;20.80;13.02;;;10.60;99.90;;;;;;5026464;28;20045;-76
2023/03/02 10:55:52;;;;;;;19.98;12.43;;;10.80;99.90;;;;;;5011797;28;20045;-76
2023/03/02 10:58:33;;;;;;;19.13;12.20;;;11.00;99.90;;;;;;4993133;28;20488;-80
2023/03/02 11:01:05;;;;;;;27.88;16.80;;;11.30;99.90;;;;;;5027230;28;20037;-77
2023/03/02 11:03:32;;;;;;;;;;;11.40;99.90;;;;;;5027038;28;21180;-72
2023/03/02 11:06:17;;;;;;;18.55;11.95;;;11.60;99.90;;;;;;5027622;28;20371;-72
2023/03/02 11:08:43;;;;;;;22.35;15.13;;;11.70;99.60;;;;;;5025698;28;20033;-75
2023/03/02 11:11:21;;;;;;;18.95;12.98;;;11.80;99.00;;;;;;5027859;28;20407;-77
2023/03/02 11:13:47;;;;;;;17.63;11.65;;;11.90;99.00;;;;;;5009681;28;20032;-75
2023/03/02 11:16:16;;;;;;;17.80;11.32;;;12.00;98.60;;;;;;5030126;28;20049;-79
2023/03/02 11:18:53;;;;;;;16.75;11.23;;;12.20;97.90;;;;;;5011291;28;20067;-77
2023/03/02 11:21:54;;;;;;;18.92;13.13;;;12.40;97.20;;;;;;5030509;28;20415;-77
2023/03/02 11:24:32;;;;;;;14.77;10.68;;;12.40;96.50;;;;;;5015223;28;20123;-77
2023/03/02 11:27:20;;;;;;;17.98;12.50;;;12.40;96.90;;;;;;5029969;28;20361;-80
2023/03/02 11:29:48;;;;;;;15.52;10.88;;;12.50;96.50;;;;;;5026745;28;20029;-75
2023/03/02 11:32:21;;;;;;;16.45;12.07;;;12.50;95.50;;;;;;5029769;28;20037;-76
2023/03/02 11:35:13;;;;;;;17.38;12.63;;;12.00;94.60;;;;;;5010357;28;20120;-75
2023/03/02 11:37:49;;;;;;;14.93;10.27;;;11.20;95.20;;;;;;5028759;28;20048;-77
2023/03/02 11:40:34;;;;;;;17.23;11.18;;;10.60;96.20;;;;;;5016198;28;20617;-75
2023/03/02 11:43:03;;;;;;;20.67;12.85;;;10.20;96.60;;;;;;5011187;28;20044;-74
2023/03/02 11:45:37;;;;;;;17.13;11.13;;;9.90;96.80;;;;;;5031890;28;20076;-73
2023/03/02 11:48:17;;;;;;;17.40;11.40;;;9.60;97.40;;;;;;5029089;28;20040;-78
2023/03/02 11:51:03;;;;;;;19.83;12.50;;;9.30;97.90;;;;;;5013950;28;20071;-73
2023/03/02 11:53:39;;;;;;;19.80;12.02;;;9.10;98.30;;;;;;5027828;28;20534;-75
2023/03/02 11:56:05;;;;;;;15.60;10.85;;;8.90;98.80;;;;;;5029411;28;20041;-77
2023/03/02 11:58:33;;;;;;;19.40;12.20;;;8.80;98.90;;;;;;5030422;28;20472;-74
2023/03/02 12:01:01;;;;;;;17.52;10.77;;;8.70;99.20;;;;;;5016020;28;20037;-76
2023/03/02 12:03:30;;;;;;;17.77;10.02;;;8.60;99.30;;;;;;5011243;28;20060;-77
2023/03/02 12:06:04;;;;;;;19.30;11.68;;;8.60;99.80;;;;;;5016750;28;20128;-77
2023/03/02 12:08:33;;;;;;;19.30;12.43;;;8.60;99.90;;;;;;4997108;28;20373;-73
2023/03/02 12:11:17;;;;;;;18.20;11.27;;;8.70;99.90;;;;;;5014612;28;20052;-74
2023/03/02 12:13:44;;;;;;;16.52;11.13;;;9.10;99.90;;;;;;5027247;28;20037;-78
2023/03/02 12:16:42;;;;;;;18.20;11.52;;;9.80;99.90;;;;;;5032160;28;20890;-78
2023/03/02 12:19:27;;;;;;;15.20;10.32;;;11.00;99.20;;;;;;5013773;28;20045;-72
2023/03/02 12:22:07;;;;;;;16.80;11.32;;;12.00;98.10;;;;;;5016477;28;20029;-78
2023/03/02 12:24:39;;;;;;;18.30;12.43;;;12.90;96.30;;;;;;5029537;28;20429;-74
2023/03/02 12:27:15;;;;;;;15.10;9.18;;;13.70;95.20;;;;;;5030781;28;20502;-79
2023/03/02 12:29:48;;;;;;;15.65;9.43;;;14.30;94.10;;;;;;5028028;28;20028;-78
2023/03/02 12:32:17;;;;;;;12.45;8.68;;;14.90;92.20;;;;;;5028865;28;20037;-76
2023/03/02 12:35:01;;;;;;;14.18;9.75;;;15.50;91.20;;;;;;5028159;28;20048;-77
2023/03/02 12:37:40;;;;;;;17.58;12.25;;;16.00;88.50;;;;;;5014390;28;20033;-72
2023/03/02 12:40:31;;;;;;;16.23;11.60;;;16.20;85.90;;;;;;5031160;28;20036;-73
2023/03/02 12:43:30;;;;;;;15.20;10.60;;;16.40;84.90;;;;;;5011883;28;20816;-79
2023/03/02 12:46:32;;;;;;;13.02;10.38;;;16.70;82.50;;;;;;5030398;28;20032;-72
2023/03/02 12:49:12;;;;;;;13.73;9.75;;;16.80;78.20;;;;;;5029199;28;20073;-79
2023/03/02 12:51:50;;;;;;;12.38;10.15;;;16.80;79.00;;;;;;5033784;28;20629;-79
2023/03/02 12:54:25;;;;;;;15.85;11.63;;;17.20;76.90;;;;;;5026807;28;20420;-77